Time;durP1;ratioP1;P1;durP2;ratioP2;P2;SDS_P1;SDS_P2;PMS_P1;PMS_P2;Temp;Humidity;BMP_temperature;BMP_pressure;BME280_temperature;BME280_humidity;BME280_pressure;Samples;Min_cycle;Max_cycle;Signal;HPM_P1;HPM_P2
2023/03/05 00:01:23;;;;;;;43.35;16.30;;;3.60;79.50;;;;;;4975630;28;92140;-72
2023/03/05 00:03:51;;;;;;;44.85;16.25;;;3.60;79.50;;;;;;4969626;28;93711;-72
2023/03/05 00:06:18;;;;;;;40.65;14.80;;;3.60;79.20;;;;;;4979750;28;92951;-73
2023/03/05 00:08:43;;;;;;;42.78;15.68;;;3.70;79.10;;;;;;4985840;28;92675;-71
2023/03/05 00:11:11;;;;;;;43.95;15.88;;;3.70;78.60;;;;;;4975715;28;92388;-70
2023/03/05 00:13:37;;;;;;;43.83;16.13;;;3.70;78.60;;;;;;4974666;28;93311;-71
2023/03/05 00:16:09;;;;;;;43.85;15.35;;;3.70;79.00;;;;;;4975636;28;92880;-73
2023/03/05 00:18:36;;;;;;;44.38;16.23;;;3.80;79.00;;;;;;4973312;28;93271;-71
2023/03/05 00:21:02;;;;;;;45.97;16.13;;;3.80;79.30;;;;;;4982785;28;92642;-73
2023/03/05 00:23:28;;;;;;;47.70;15.95;;;3.70;78.80;;;;;;4985786;28;94712;-72
2023/03/05 00:25:54;;;;;;;41.00;15.73;;;3.80;79.20;;;;;;4975218;28;93474;-72
2023/03/05 00:28:19;;;;;;;40.88;16.00;;;3.80;79.00;;;;;;4974452;28;92089;-72
2023/03/05 00:30:45;;;;;;;42.55;17.00;;;3.90;78.90;;;;;;4979694;28;92262;-72
2023/03/05 00:33:11;;;;;;;43.35;15.48;;;3.90;78.60;;;;;;4979759;28;93724;-72
2023/03/05 00:35:45;;;;;;;42.10;15.38;;;3.90;78.40;;;;;;4976964;28;92866;-72
2023/03/05 00:38:12;;;;;;;42.95;16.38;;;3.90;78.20;;;;;;4978321;28;92407;-71
2023/03/05 00:40:39;;;;;;;44.10;16.52;;;4.00;78.50;;;;;;4974644;28;91663;-71
2023/03/05 00:43:05;;;;;;;43.97;16.13;;;4.00;78.50;;;;;;4974476;28;93281;-70
2023/03/05 00:45:31;;;;;;;39.72;15.55;;;4.10;78.30;;;;;;4974501;28;92771;-71
2023/03/05 00:47:57;;;;;;;44.35;15.90;;;4.10;78.20;;;;;;4973174;28;93429;-72
2023/03/05 00:50:24;;;;;;;45.58;17.20;;;4.00;78.20;;;;;;4974348;28;92576;-72
2023/03/05 00:52:50;;;;;;;46.38;16.27;;;4.00;78.40;;;;;;4975534;28;93239;-72
2023/03/05 00:55:16;;;;;;;45.47;15.75;;;4.00;78.90;;;;;;4973654;28;93869;-71
2023/03/05 00:57:42;;;;;;;45.38;17.05;;;3.90;78.40;;;;;;4974297;28;92222;-70
2023/03/05 01:00:08;;;;;;;40.75;16.25;;;4.00;78.70;;;;;;4973751;28;92432;-73
2023/03/05 01:02:34;;;;;;;44.22;15.88;;;4.00;78.40;;;;;;4974512;28;93285;-70
2023/03/05 01:04:59;;;;;;;43.10;15.63;;;3.90;78.60;;;;;;4975093;28;92944;-72
2023/03/05 01:07:25;;;;;;;43.38;16.38;;;3.90;78.90;;;;;;4975769;28;92414;-70
2023/03/05 01:09:51;;;;;;;41.53;16.42;;;3.90;78.90;;;;;;4985189;28;92508;-73
2023/03/05 01:12:16;;;;;;;43.38;15.45;;;3.90;78.60;;;;;;4973744;28;95119;-70
2023/03/05 01:14:42;;;;;;;43.55;15.35;;;3.90;78.60;;;;;;4982715;28;93450;-73
2023/03/05 01:17:07;;;;;;;46.83;16.70;;;3.90;78.40;;;;;;4994510;28;92610;-71
2023/03/05 01:19:33;;;;;;;44.90;16.42;;;3.90;78.40;;;;;;4978083;28;92408;-72
2023/03/05 01:21:59;;;;;;;43.88;16.48;;;4.00;78.30;;;;;;4974370;28;94298;-70
2023/03/05 01:24:25;;;;;;;44.42;15.95;;;4.00;78.20;;;;;;4983658;28;93084;-72
2023/03/05 01:26:51;;;;;;;40.95;15.40;;;4.00;78.10;;;;;;4983344;28;93040;-73
2023/03/05 01:29:16;;;;;;;39.08;16.02;;;4.00;78.10;;;;;;4979685;28;91528;-74
2023/03/05 01:31:42;;;;;;;42.88;15.52;;;4.00;78.30;;;;;;4975832;28;92778;-72
2023/03/05 01:34:08;;;;;;;44.38;16.50;;;4.10;78.00;;;;;;4980574;28;92516;-72
2023/03/05 01:36:33;;;;;;;45.83;16.40;;;4.10;77.80;;;;;;4973959;28;93343;-69
2023/03/05 01:39:00;;;;;;;43.75;16.15;;;4.10;77.40;;;;;;4974429;28;92160;-70
2023/03/05 01:41:26;;;;;;;48.40;15.60;;;4.20;77.60;;;;;;4973510;28;92577;-71
2023/03/05 01:43:52;;;;;;;46.42;16.23;;;4.20;77.60;;;;;;4975877;28;92724;-70
2023/03/05 01:46:35;;;;;;;45.85;16.73;;;4.20;77.80;;;;;;4974760;28;92520;-71
2023/03/05 01:49:13;;;;;;;47.83;16.92;;;4.10;78.00;;;;;;4974058;28;92429;-70
2023/03/05 01:51:55;;;;;;;43.05;16.38;;;4.10;77.90;;;;;;4972713;28;93461;-71
2023/03/05 01:54:52;;;;;;;47.33;16.33;;;4.10;77.70;;;;;;4981754;28;92998;-70
2023/03/05 01:57:30;;;;;;;44.25;16.33;;;4.10;78.10;;;;;;4958850;28;92374;-71
2023/03/05 02:00:01;;;;;;;48.47;16.65;;;4.10;78.20;;;;;;4976294;28;92468;-71
2023/03/05 02:02:26;;;;;;;41.20;15.52;;;4.00;78.30;;;;;;4976504;28;93429;-71
2023/03/05 02:05:01;;;;;;;45.75;17.00;;;4.10;78.30;;;;;;4979328;28;93303;-71
2023/03/05 02:07:29;;;;;;;44.10;16.35;;;4.10;78.60;;;;;;4972777;28;92407;-72
2023/03/05 02:09:55;;;;;;;42.70;17.30;;;4.00;79.10;;;;;;4975201;28;92300;-71
2023/03/05 02:12:21;;;;;;;46.70;17.10;;;4.10;78.90;;;;;;4976861;28;92819;-71
2023/03/05 02:14:50;;;;;;;43.97;16.88;;;4.10;78.70;;;;;;4996920;28;93032;-72
2023/03/05 02:17:16;;;;;;;45.95;15.88;;;4.00;78.40;;;;;;4977678;28;92793;-72
2023/03/05 02:19:51;;;;;;;43.28;15.57;;;3.90;78.90;;;;;;4986588;28;91767;-72
2023/03/05 02:22:18;;;;;;;41.63;15.68;;;3.90;79.00;;;;;;4978206;28;93215;-71
2023/03/05 02:24:44;;;;;;;43.30;16.38;;;4.00;78.70;;;;;;4977880;28;96359;-73
2023/03/05 02:27:12;;;;;;;42.15;16.15;;;4.10;78.10;;;;;;4980532;28;93505;-73
2023/03/05 02:29:41;;;;;;;44.50;16.90;;;4.10;77.90;;;;;;4979737;28;92148;-72
2023/03/05 02:32:08;;;;;;;45.55;16.55;;;4.10;78.10;;;;;;4971884;28;93040;-72
2023/03/05 02:34:35;;;;;;;48.17;16.20;;;4.10;77.90;;;;;;4978079;28;92881;-74
2023/03/05 02:37:03;;;;;;;44.58;15.85;;;4.10;77.70;;;;;;4983816;28;92464;-75
2023/03/05 02:39:29;;;;;;;45.38;16.23;;;4.10;77.40;;;;;;4979716;28;92458;-72
2023/03/05 02:41:55;;;;;;;43.05;15.70;;;4.10;77.60;;;;;;4991336;28;93159;-71
2023/03/05 02:44:21;;;;;;;45.78;16.38;;;4.10;77.80;;;;;;4976229;28;92222;-73
2023/03/05 02:46:47;;;;;;;43.10;16.23;;;4.10;77.70;;;;;;4979709;28;92559;-72
2023/03/05 02:49:13;;;;;;;48.03;17.27;;;4.00;77.50;;;;;;4977068;28;93107;-72
2023/03/05 02:51:38;;;;;;;49.30;17.55;;;4.10;77.80;;;;;;4977452;28;94376;-72
2023/03/05 02:54:04;;;;;;;46.72;17.10;;;4.10;77.70;;;;;;4981302;28;93311;-73
2023/03/05 02:56:30;;;;;;;44.15;16.08;;;4.20;77.70;;;;;;4975919;28;92515;-72
2023/03/05 02:58:56;;;;;;;44.50;15.93;;;4.20;77.50;;;;;;4978054;28;92379;-74
2023/03/05 03:01:21;;;;;;;46.42;17.73;;;4.20;77.60;;;;;;4976393;28;93475;-72
2023/03/05 03:03:47;;;;;;;51.28;16.38;;;4.20;77.70;;;;;;4976104;28;92491;-71
2023/03/05 03:06:13;;;;;;;47.85;16.95;;;4.10;77.90;;;;;;4975527;28;92492;-72
2023/03/05 03:08:38;;;;;;;45.50;17.42;;;4.10;78.10;;;;;;4978345;28;91503;-71
2023/03/05 03:11:09;;;;;;;48.40;16.50;;;4.20;77.90;;;;;;4985554;28;93640;-71
2023/03/05 03:13:35;;;;;;;42.47;16.70;;;4.10;78.00;;;;;;4975227;28;92949;-71
2023/03/05 03:16:07;;;;;;;45.53;16.55;;;4.20;78.10;;;;;;4975163;28;93674;-73
2023/03/05 03:18:33;;;;;;;47.35;16.52;;;4.20;78.10;;;;;;4983878;28;92407;-70
2023/03/05 03:20:59;;;;;;;43.35;16.08;;;4.10;77.90;;;;;;4975397;28;93457;-71
2023/03/05 03:23:25;;;;;;;43.22;16.02;;;4.20;77.60;;;;;;4973961;28;96392;-71
2023/03/05 03:25:51;;;;;;;44.85;16.90;;;4.10;77.40;;;;;;4978009;28;92067;-71
2023/03/05 03:28:16;;;;;;;44.20;16.42;;;4.00;78.20;;;;;;4985935;28;92338;-73
2023/03/05 03:30:42;;;;;;;43.30;15.93;;;4.10;77.90;;;;;;4975305;28;93066;-72
2023/03/05 03:33:08;;;;;;;47.08;17.85;;;4.10;77.40;;;;;;4974962;28;92346;-73
2023/03/05 03:35:33;;;;;;;48.47;17.23;;;4.00;77.60;;;;;;4976210;28;92373;-71
2023/03/05 03:37:59;;;;;;;43.92;16.77;;;4.00;77.50;;;;;;4990649;28;92328;-71
2023/03/05 03:40:25;;;;;;;44.80;16.23;;;4.10;77.70;;;;;;4974972;28;93662;-70
2023/03/05 03:42:51;;;;;;;43.90;16.55;;;4.10;77.40;;;;;;4977374;28;93359;-69
2023/03/05 03:45:17;;;;;;;44.60;17.02;;;4.10;77.30;;;;;;4976240;28;92405;-72
2023/03/05 03:47:43;;;;;;;46.60;17.38;;;4.10;77.20;;;;;;4976312;28;92541;-69
2023/03/05 03:50:09;;;;;;;45.58;15.80;;;4.10;77.10;;;;;;4976329;28;92457;-69
2023/03/05 03:52:35;;;;;;;44.17;16.20;;;4.20;77.70;;;;;;4975054;28;95183;-70
2023/03/05 03:55:00;;;;;;;47.58;17.50;;;4.20;77.00;;;;;;4973612;28;92490;-71
2023/03/05 03:57:30;;;;;;;48.25;16.98;;;4.20;77.10;;;;;;4975730;28;91444;-71
2023/03/05 03:59:55;;;;;;;43.20;16.10;;;4.20;77.30;;;;;;4978583;28;93219;-71
2023/03/05 04:02:22;;;;;;;48.25;17.23;;;4.20;76.80;;;;;;4989565;28;93397;-72
2023/03/05 04:04:47;;;;;;;48.13;17.02;;;4.20;76.90;;;;;;4995279;28;93326;-71
2023/03/05 04:07:13;;;;;;;46.60;16.88;;;4.20;76.70;;;;;;4980661;28;92450;-71
2023/03/05 04:09:39;;;;;;;47.83;17.75;;;4.20;76.50;;;;;;4980222;28;92431;-71
2023/03/05 04:12:05;;;;;;;49.92;17.25;;;4.20;76.60;;;;;;4986343;28;93802;-71
2023/03/05 04:14:30;;;;;;;47.60;17.40;;;4.20;76.40;;;;;;4975307;28;92083;-72
2023/03/05 04:16:56;;;;;;;45.13;17.33;;;4.10;76.50;;;;;;4975649;28;92453;-73
2023/03/05 04:19:22;;;;;;;46.35;16.98;;;4.00;77.20;;;;;;4974430;28;93208;-73
2023/03/05 04:21:47;;;;;;;50.42;17.48;;;4.00;77.40;;;;;;4983258;28;92240;-72
2023/03/05 04:24:13;;;;;;;51.25;17.40;;;4.00;77.60;;;;;;4994865;28;92319;-70
2023/03/05 04:26:39;;;;;;;44.50;16.77;;;3.80;77.90;;;;;;4988379;28;92106;-70
2023/03/05 04:29:04;;;;;;;47.45;17.10;;;3.80;78.00;;;;;;4973955;28;93613;-73
2023/03/05 04:31:30;;;;;;;48.70;17.42;;;3.90;77.90;;;;;;4975373;28;92570;-71
2023/03/05 04:33:56;;;;;;;45.83;17.15;;;3.80;78.00;;;;;;4993068;28;92537;-74
2023/03/05 04:36:21;;;;;;;45.90;16.75;;;3.80;79.00;;;;;;4978034;28;92541;-71
2023/03/05 04:38:47;;;;;;;47.78;17.38;;;3.80;78.80;;;;;;4974795;28;93112;-71
2023/03/05 04:41:12;;;;;;;46.58;16.40;;;3.70;79.20;;;;;;4974132;28;92986;-72
2023/03/05 04:43:38;;;;;;;47.08;17.45;;;3.60;79.60;;;;;;4974215;28;92704;-70
2023/03/05 04:46:04;;;;;;;49.70;17.90;;;3.60;79.60;;;;;;4978152;28;91669;-72
2023/03/05 04:48:29;;;;;;;46.33;16.70;;;3.60;79.30;;;;;;4993920;28;93655;-70
2023/03/05 04:50:56;;;;;;;52.53;16.90;;;3.60;79.10;;;;;;4988546;28;92987;-71
2023/03/05 04:53:22;;;;;;;52.25;19.02;;;3.60;79.20;;;;;;4988421;28;93408;-72
2023/03/05 04:55:55;;;;;;;47.50;17.67;;;3.60;79.30;;;;;;4974667;28;92210;-72
2023/03/05 04:58:21;;;;;;;47.63;17.23;;;3.60;79.80;;;;;;4968731;28;93292;-71
2023/03/05 05:00:47;;;;;;;47.45;17.58;;;3.60;80.00;;;;;;4970548;28;92461;-70
2023/03/05 05:03:12;;;;;;;45.15;16.77;;;3.50;79.60;;;;;;4982546;28;93262;-70
2023/03/05 05:05:38;;;;;;;48.92;16.90;;;3.60;79.40;;;;;;4989629;28;93438;-70
2023/03/05 05:08:04;;;;;;;42.80;16.92;;;3.60;79.50;;;;;;4980450;28;93082;-72
2023/03/05 05:10:30;;;;;;;50.25;17.83;;;3.60;79.50;;;;;;4979268;28;92895;-70
2023/03/05 05:12:56;;;;;;;50.67;17.80;;;3.60;79.60;;;;;;4983211;28;92450;-74
2023/03/05 05:15:22;;;;;;;45.55;17.02;;;3.60;79.40;;;;;;4974612;28;92746;-72
2023/03/05 05:17:48;;;;;;;49.33;17.15;;;3.60;79.50;;;;;;4982540;28;94628;-72
2023/03/05 05:20:15;;;;;;;47.05;16.95;;;3.70;79.40;;;;;;4974145;28;93857;-71
2023/03/05 05:22:41;;;;;;;53.80;17.38;;;3.70;79.30;;;;;;4972726;28;92354;-71
2023/03/05 05:25:08;;;;;;;54.85;18.35;;;3.70;78.70;;;;;;4981747;28;92711;-71
2023/03/05 05:27:33;;;;;;;47.50;17.33;;;3.70;78.70;;;;;;4992006;28;94843;-71
2023/03/05 05:29:59;;;;;;;50.05;18.30;;;3.70;78.60;;;;;;4991039;28;92855;-71
2023/03/05 05:32:25;;;;;;;47.83;17.42;;;3.60;78.80;;;;;;4973847;28;92426;-71
2023/03/05 05:34:55;;;;;;;47.08;17.88;;;3.50;79.30;;;;;;4972569;28;91697;-71
2023/03/05 05:37:21;;;;;;;51.20;17.17;;;3.50;79.30;;;;;;4968368;28;93402;-70
2023/03/05 05:39:49;;;;;;;48.10;17.17;;;3.50;79.60;;;;;;4964757;28;93720;-70
2023/03/05 05:42:19;;;;;;;54.00;17.80;;;3.50;79.20;;;;;;4961330;28;94997;-73
2023/03/05 05:44:45;;;;;;;50.40;17.38;;;3.50;79.30;;;;;;4969207;28;92588;-70
2023/03/05 05:47:11;;;;;;;51.00;17.17;;;3.60;79.30;;;;;;4972583;28;93897;-72
2023/03/05 05:49:37;;;;;;;47.60;17.25;;;3.60;79.00;;;;;;4970504;28;92541;-71
2023/03/05 05:52:03;;;;;;;47.20;18.33;;;3.60;79.20;;;;;;4970634;28;92430;-72
2023/03/05 05:54:28;;;;;;;50.42;16.73;;;3.60;79.10;;;;;;4976689;28;92993;-73
2023/03/05 05:56:54;;;;;;;46.72;18.45;;;3.60;79.00;;;;;;4966482;28;95712;-72
2023/03/05 05:59:20;;;;;;;46.08;17.17;;;3.60;78.80;;;;;;4972439;28;91759;-72
2023/03/05 06:01:45;;;;;;;47.75;17.73;;;3.60;78.90;;;;;;4973613;28;92558;-71
2023/03/05 06:04:11;;;;;;;46.22;17.92;;;3.60;79.30;;;;;;4968221;28;92871;-71
2023/03/05 06:06:37;;;;;;;49.88;16.25;;;3.70;79.40;;;;;;4970051;28;94714;-70
2023/03/05 06:09:03;;;;;;;50.45;18.10;;;3.70;79.70;;;;;;4969751;28;95967;-71
2023/03/05 06:11:29;;;;;;;47.67;17.40;;;3.70;79.50;;;;;;4965218;28;92374;-70
2023/03/05 06:13:55;;;;;;;50.95;16.80;;;3.70;79.50;;;;;;4969761;28;92702;-71
2023/03/05 06:16:22;;;;;;;48.00;17.95;;;3.70;80.00;;;;;;4969509;28;93189;-71
2023/03/05 06:18:49;;;;;;;47.67;17.70;;;3.70;79.80;;;;;;4964248;28;93907;-71
2023/03/05 06:21:16;;;;;;;50.20;18.55;;;3.80;79.30;;;;;;4960425;28;93873;-71
2023/03/05 06:23:43;;;;;;;46.40;16.77;;;3.80;79.10;;;;;;4964219;28;93026;-70
2023/03/05 06:26:12;;;;;;;47.10;17.33;;;3.80;79.20;;;;;;4971318;28;92371;-73
2023/03/05 06:28:37;;;;;;;51.08;17.98;;;3.80;79.70;;;;;;4965070;28;92622;-70
2023/03/05 06:31:05;;;;;;;49.55;17.17;;;3.80;79.10;;;;;;4964014;28;93428;-71
2023/03/05 06:33:32;;;;;;;47.53;17.45;;;3.80;79.40;;;;;;4970903;28;93919;-72
2023/03/05 06:35:58;;;;;;;55.80;18.67;;;3.90;79.10;;;;;;4967591;28;93602;-71
2023/03/05 06:38:24;;;;;;;51.42;17.85;;;3.80;79.20;;;;;;4967672;28;93146;-72
2023/03/05 06:40:50;;;;;;;53.35;18.05;;;3.90;79.50;;;;;;4968825;28;94237;-73
2023/03/05 06:43:16;;;;;;;49.53;18.85;;;4.00;79.50;;;;;;4969498;28;94197;-71
2023/03/05 06:45:42;;;;;;;50.78;17.08;;;4.00;79.30;;;;;;4967240;28;92839;-71
2023/03/05 06:48:07;;;;;;;51.53;17.60;;;4.10;79.00;;;;;;4965754;28;93217;-70
2023/03/05 06:50:35;;;;;;;47.88;18.02;;;4.20;78.30;;;;;;4969320;28;92699;-72
2023/03/05 06:53:01;;;;;;;50.58;18.52;;;4.20;78.40;;;;;;4966970;28;92728;-70
2023/03/05 06:55:27;;;;;;;53.38;19.65;;;4.20;78.20;;;;;;4968140;28;94442;-71
2023/03/05 06:57:53;;;;;;;52.45;18.38;;;4.20;78.20;;;;;;4976642;28;94095;-70
2023/03/05 07:00:19;;;;;;;51.47;19.00;;;4.30;78.90;;;;;;4973423;28;92398;-73
2023/03/05 07:02:44;;;;;;;48.85;18.92;;;4.40;78.60;;;;;;4979627;28;92507;-70
2023/03/05 07:05:10;;;;;;;52.05;20.10;;;4.40;78.30;;;;;;4972522;28;93705;-70
2023/03/05 07:07:36;;;;;;;46.88;18.30;;;4.40;77.70;;;;;;4973111;28;93066;-72
2023/03/05 07:10:02;;;;;;;47.72;18.77;;;4.40;77.90;;;;;;4971071;28;92874;-70
2023/03/05 07:12:28;;;;;;;50.60;18.33;;;4.50;78.60;;;;;;4976089;28;91962;-70
2023/03/05 07:14:53;;;;;;;50.63;18.50;;;4.70;78.40;;;;;;4990867;28;92705;-70
2023/03/05 07:17:19;;;;;;;49.65;18.98;;;4.70;77.20;;;;;;4974249;28;94085;-72
2023/03/05 07:19:45;;;;;;;51.17;18.83;;;4.90;77.00;;;;;;4972968;28;94787;-72
2023/03/05 07:22:10;;;;;;;50.72;18.63;;;4.90;76.80;;;;;;4981656;28;92572;-70
2023/03/05 07:24:37;;;;;;;48.80;18.27;;;4.90;76.70;;;;;;4977641;28;93209;-70
2023/03/05 07:27:02;;;;;;;49.55;19.05;;;4.90;76.90;;;;;;4974350;28;92403;-70
2023/03/05 07:29:28;;;;;;;51.17;19.48;;;4.90;77.10;;;;;;4973967;28;92586;-70
2023/03/05 07:31:54;;;;;;;48.83;18.08;;;5.00;76.90;;;;;;4981546;28;93683;-70
2023/03/05 07:34:21;;;;;;;50.75;18.42;;;5.10;76.40;;;;;;4985918;28;92852;-70
2023/03/05 07:36:50;;;;;;;55.20;19.55;;;5.10;75.80;;;;;;4976766;28;93589;-70
2023/03/05 07:39:18;;;;;;;49.25;18.63;;;5.30;75.90;;;;;;4965622;28;92513;-69
2023/03/05 07:41:48;;;;;;;52.03;19.13;;;5.40;76.00;;;;;;4972310;28;93668;-70
2023/03/05 07:44:14;;;;;;;52.63;19.38;;;5.50;75.50;;;;;;4968820;28;94168;-70
2023/03/05 07:46:40;;;;;;;48.45;18.77;;;5.60;75.00;;;;;;4967207;28;94528;-70
2023/03/05 07:49:06;;;;;;;54.22;19.17;;;5.70;74.40;;;;;;4967494;28;92899;-70
2023/03/05 07:51:33;;;;;;;50.63;18.40;;;5.80;73.80;;;;;;4970721;28;92127;-71
2023/03/05 07:53:59;;;;;;;45.90;18.38;;;5.80;73.30;;;;;;4967100;28;92699;-71
2023/03/05 07:56:30;;;;;;;50.80;19.52;;;5.70;73.90;;;;;;4963719;28;93047;-71
2023/03/05 07:59:00;;;;;;;48.55;18.92;;;5.70;73.70;;;;;;4962898;28;92915;-71
2023/03/05 08:01:27;;;;;;;51.03;18.45;;;5.80;73.50;;;;;;4972234;28;91985;-72
2023/03/05 08:03:53;;;;;;;44.70;18.08;;;5.70;72.50;;;;;;4962990;28;94342;-73
2023/03/05 08:06:18;;;;;;;43.25;17.65;;;5.80;72.60;;;;;;4963660;28;92441;-72
2023/03/05 08:08:44;;;;;;;49.28;18.90;;;5.70;72.00;;;;;;4970883;28;93520;-70
2023/03/05 08:11:12;;;;;;;44.65;16.15;;;5.80;72.60;;;;;;4968640;28;92973;-72
2023/03/05 08:13:38;;;;;;;47.17;18.52;;;6.10;74.70;;;;;;4963267;28;93203;-71
2023/03/05 08:16:10;;;;;;;46.55;18.17;;;6.20;72.30;;;;;;4970819;28;92880;-72
2023/03/05 08:18:36;;;;;;;47.45;17.80;;;6.30;72.20;;;;;;4968839;28;92567;-69
2023/03/05 08:21:02;;;;;;;51.25;18.95;;;6.60;71.90;;;;;;4969820;28;92532;-69
2023/03/05 08:23:29;;;;;;;46.78;18.67;;;6.80;71.00;;;;;;4968565;28;93016;-69
2023/03/05 08:25:54;;;;;;;52.17;18.50;;;6.90;71.00;;;;;;4968362;28;92355;-70
2023/03/05 08:28:20;;;;;;;44.90;18.23;;;6.80;68.40;;;;;;4973315;28;92791;-73
2023/03/05 08:30:47;;;;;;;51.38;19.58;;;6.90;69.00;;;;;;4978097;28;93266;-70
2023/03/05 08:33:14;;;;;;;46.05;18.77;;;7.00;68.40;;;;;;4974528;28;94169;-69
2023/03/05 08:35:39;;;;;;;43.88;18.30;;;7.00;69.40;;;;;;4982640;28;93778;-70
2023/03/05 08:38:05;;;;;;;45.95;18.52;;;7.20;68.10;;;;;;4979205;28;92571;-72
2023/03/05 08:40:31;;;;;;;43.38;17.98;;;7.10;68.00;;;;;;4973743;28;92469;-71
2023/03/05 08:42:58;;;;;;;44.83;17.55;;;7.30;68.00;;;;;;4970201;28;92650;-74
2023/03/05 08:45:26;;;;;;;41.25;16.88;;;7.50;67.00;;;;;;4971541;28;92438;-70
2023/03/05 08:47:52;;;;;;;41.08;17.58;;;7.60;66.30;;;;;;4968660;28;92332;-71
2023/03/05 08:50:21;;;;;;;41.20;17.50;;;7.80;64.70;;;;;;4981693;28;92018;-70
2023/03/05 08:52:46;;;;;;;44.35;17.77;;;7.50;64.60;;;;;;4989839;28;92657;-71
2023/03/05 08:55:12;;;;;;;41.33;16.95;;;7.30;65.80;;;;;;4964851;28;92969;-73
2023/03/05 08:57:38;;;;;;;40.17;16.83;;;7.30;65.80;;;;;;4973497;28;93577;-71
2023/03/05 09:00:04;;;;;;;40.47;16.42;;;7.50;66.50;;;;;;4974057;28;92440;-69
2023/03/05 09:02:30;;;;;;;35.08;15.55;;;7.70;65.30;;;;;;4976635;28;93344;-70
2023/03/05 09:04:56;;;;;;;38.75;16.77;;;7.90;65.40;;;;;;4970408;28;93246;-70
2023/03/05 09:07:21;;;;;;;40.55;16.95;;;8.00;64.50;;;;;;4976058;28;92728;-71
2023/03/05 09:09:47;;;;;;;42.88;17.15;;;8.10;64.80;;;;;;4986885;28;92299;-73
2023/03/05 09:12:14;;;;;;;40.53;17.40;;;8.20;63.60;;;;;;4965280;28;92747;-72
2023/03/05 09:14:41;;;;;;;42.47;16.45;;;8.30;64.10;;;;;;4973230;28;92977;-71
2023/03/05 09:17:07;;;;;;;39.65;16.58;;;8.30;63.70;;;;;;4978157;28;92065;-72
2023/03/05 09:19:33;;;;;;;39.92;16.42;;;8.40;65.10;;;;;;4976147;28;92799;-70
2023/03/05 09:21:59;;;;;;;45.63;18.17;;;8.40;65.50;;;;;;4973959;28;94116;-69
2023/03/05 09:24:25;;;;;;;37.38;16.90;;;8.60;64.50;;;;;;4975436;28;94303;-70
2023/03/05 09:26:50;;;;;;;36.70;16.40;;;8.70;63.30;;;;;;4974803;28;92904;-71
2023/03/05 09:29:16;;;;;;;36.55;15.43;;;8.70;63.20;;;;;;4970643;28;92723;-71
2023/03/05 09:31:42;;;;;;;35.10;15.13;;;8.80;63.20;;;;;;4964956;28;93081;-74
2023/03/05 09:34:10;;;;;;;39.35;16.70;;;8.90;64.00;;;;;;4969505;28;92881;-71
2023/03/05 09:36:35;;;;;;;36.58;15.25;;;9.10;63.40;;;;;;4964400;28;93033;-71
2023/03/05 09:39:02;;;;;;;34.35;14.25;;;9.20;63.30;;;;;;4977712;28;91628;-69
2023/03/05 09:42:19;;;;;;;34.08;14.57;;;9.30;61.30;;;;;;4976635;28;94831;-72
2023/03/05 09:45:12;;;;;;;34.20;13.35;;;9.20;61.30;;;;;;4950337;28;92940;-70
2023/03/05 09:47:50;;;;;;;31.80;13.40;;;9.20;61.00;;;;;;4965030;28;94961;-69
2023/03/05 09:50:43;;;;;;;37.35;14.32;;;9.40;61.90;;;;;;4971786;28;92792;-72
2023/03/05 09:53:14;;;;;;;30.38;13.48;;;9.60;60.50;;;;;;4969418;28;93489;-70
2023/03/05 09:55:47;;;;;;;34.17;14.95;;;10.00;59.40;;;;;;4967271;28;92925;-69
2023/03/05 09:58:51;;;;;;;33.33;14.70;;;10.10;59.90;;;;;;4975623;28;92233;-73
2023/03/05 10:01:18;;;;;;;34.85;15.63;;;10.30;59.20;;;;;;4929675;28;92339;-69
2023/03/05 10:03:50;;;;;;;37.22;14.25;;;10.40;57.70;;;;;;4964943;28;93293;-71
2023/03/05 10:06:35;;;;;;;33.38;14.45;;;10.30;58.20;;;;;;4970652;28;91677;-72
2023/03/05 10:09:10;;;;;;;32.95;13.30;;;10.70;57.00;;;;;;4967424;28;92512;-72
2023/03/05 10:11:54;;;;;;;34.03;14.50;;;10.90;57.10;;;;;;4970527;28;92531;-71
2023/03/05 10:14:29;;;;;;;35.85;15.10;;;11.10;57.30;;;;;;4966982;28;94483;-72
2023/03/05 10:16:58;;;;;;;34.17;14.50;;;11.20;55.90;;;;;;4964547;28;94058;-71
2023/03/05 10:19:46;;;;;;;34.13;14.93;;;11.10;57.10;;;;;;4974338;28;93524;-72
2023/03/05 10:22:23;;;;;;;37.00;15.50;;;11.30;56.20;;;;;;4973760;28;92514;-74
2023/03/05 10:24:55;;;;;;;35.78;15.50;;;11.20;57.10;;;;;;4962503;28;94120;-70
2023/03/05 10:27:33;;;;;;;36.92;17.05;;;11.30;56.60;;;;;;4967012;28;93292;-70
2023/03/05 10:30:22;;;;;;;38.08;16.85;;;11.10;57.20;;;;;;4969484;28;92656;-72
2023/03/05 10:33:05;;;;;;;33.63;15.00;;;11.00;57.30;;;;;;4963045;28;91752;-72
2023/03/05 10:36:14;;;;;;;32.47;14.10;;;11.10;56.80;;;;;;4966583;28;93429;-71
2023/03/05 10:38:53;;;;;;;33.90;15.50;;;11.10;56.60;;;;;;4966998;28;93987;-69
2023/03/05 10:41:25;;;;;;;29.60;12.70;;;11.10;57.90;;;;;;4963893;28;94139;-72
2023/03/05 10:44:09;;;;;;;28.17;13.35;;;11.20;59.90;;;;;;4964664;28;92884;-72
2023/03/05 10:46:36;;;;;;;32.60;14.77;;;11.20;58.40;;;;;;4966263;28;93238;-71
2023/03/05 10:49:14;;;;;;;33.92;14.43;;;11.30;57.00;;;;;;4972794;28;93851;-71
2023/03/05 10:51:43;;;;;;;35.28;14.90;;;11.10;55.00;;;;;;4965913;28;93775;-73
2023/03/05 10:54:28;;;;;;;33.75;14.85;;;11.30;56.30;;;;;;4966850;28;92556;-72
2023/03/05 10:57:15;;;;;;;41.45;18.92;;;11.40;57.70;;;;;;4966453;28;92655;-71
2023/03/05 10:59:51;;;;;;;34.35;15.15;;;11.70;56.50;;;;;;4968062;28;92862;-74
2023/03/05 11:02:18;;;;;;;26.48;11.98;;;11.60;55.90;;;;;;4964079;28;92653;-72
2023/03/05 11:04:46;;;;;;;35.47;14.50;;;11.60;53.80;;;;;;4969922;28;92547;-73
2023/03/05 11:07:14;;;;;;;31.30;13.60;;;11.70;57.10;;;;;;4959697;28;94608;-73
2023/03/05 11:10:01;;;;;;;29.45;14.00;;;11.90;55.40;;;;;;4966030;28;94058;-72
2023/03/05 11:12:29;;;;;;;29.23;13.70;;;11.90;56.10;;;;;;4964435;28;92674;-73
2023/03/05 11:15:13;;;;;;;34.33;15.48;;;11.90;56.90;;;;;;4963454;28;94821;-71
2023/03/05 11:17:47;;;;;;;29.15;14.23;;;11.90;57.00;;;;;;4963739;28;94315;-71
2023/03/05 11:20:30;;;;;;;28.08;12.88;;;11.90;56.40;;;;;;4964223;28;94070;-72
2023/03/05 11:23:02;;;;;;;31.85;14.25;;;12.10;57.80;;;;;;4967093;28;93816;-71
2023/03/05 11:25:28;;;;;;;31.00;14.30;;;12.10;56.40;;;;;;4966982;28;93224;-71
2023/03/05 11:27:57;;;;;;;30.52;13.10;;;12.20;56.20;;;;;;4964810;28;93951;-74
2023/03/05 11:30:35;;;;;;;31.27;14.13;;;12.10;56.40;;;;;;4979570;28;97290;-70
2023/03/05 11:33:19;;;;;;;30.10;13.75;;;12.00;55.60;;;;;;4968014;28;93220;-72
2023/03/05 11:35:46;;;;;;;30.25;12.43;;;12.00;56.40;;;;;;4970506;28;93137;-72
2023/03/05 11:38:26;;;;;;;33.60;14.20;;;11.90;58.40;;;;;;4963368;28;93210;-74
2023/03/05 11:40:54;;;;;;;32.05;14.02;;;11.80;55.40;;;;;;4968086;28;92533;-71
2023/03/05 11:43:23;;;;;;;32.05;13.68;;;11.60;56.50;;;;;;4970141;28;92768;-72
2023/03/05 11:45:57;;;;;;;35.58;14.88;;;11.50;56.00;;;;;;4973351;28;92848;-71
2023/03/05 11:48:43;;;;;;;35.63;14.95;;;11.70;56.60;;;;;;4964117;28;93473;-70
2023/03/05 11:51:25;;;;;;;33.53;14.88;;;11.80;57.70;;;;;;4964075;28;94255;-71
2023/03/05 11:53:59;;;;;;;32.00;14.18;;;11.80;57.70;;;;;;4973724;28;92384;-71
2023/03/05 11:56:38;;;;;;;31.50;14.15;;;11.70;57.70;;;;;;4971747;28;92661;-70
2023/03/05 11:59:22;;;;;;;31.38;13.75;;;11.50;57.30;;;;;;4976783;28;94712;-69
2023/03/05 12:01:51;;;;;;;32.65;13.55;;;11.30;58.80;;;;;;4973101;28;93827;-69
2023/03/05 12:04:18;;;;;;;30.75;14.23;;;11.30;60.00;;;;;;4963447;28;93432;-73
2023/03/05 12:06:52;;;;;;;33.75;15.30;;;11.10;56.20;;;;;;4973519;28;92479;-68
2023/03/05 12:09:36;;;;;;;35.15;14.88;;;10.90;59.10;;;;;;4976133;28;93257;-71
2023/03/05 12:12:17;;;;;;;31.13;13.93;;;10.70;58.10;;;;;;4967585;28;93044;-73
2023/03/05 12:14:47;;;;;;;33.03;12.80;;;10.60;57.20;;;;;;4976923;28;92275;-70
2023/03/05 12:17:20;;;;;;;27.30;11.50;;;10.50;61.80;;;;;;4965906;28;91869;-72
2023/03/05 12:20:00;;;;;;;29.20;13.00;;;10.60;58.30;;;;;;4962865;28;93654;-70
2023/03/05 12:22:33;;;;;;;29.58;12.55;;;10.70;59.20;;;;;;4960169;28;93122;-71
2023/03/05 12:25:25;;;;;;;28.80;12.35;;;10.80;60.20;;;;;;4965646;28;95447;-71
2023/03/05 12:27:51;;;;;;;30.08;12.20;;;10.70;58.40;;;;;;4954696;28;92842;-70
2023/03/05 12:30:34;;;;;;;30.55;13.23;;;10.70;58.40;;;;;;4963809;28;93219;-71
2023/03/05 12:33:06;;;;;;;30.70;12.60;;;10.50;59.60;;;;;;4961826;28;93891;-69
2023/03/05 12:35:35;;;;;;;33.25;12.82;;;10.40;59.30;;;;;;4964640;28;92952;-72
2023/03/05 12:38:27;;;;;;;28.48;12.32;;;10.40;58.90;;;;;;4965260;28;92636;-72
2023/03/05 12:41:22;;;;;;;27.45;10.45;;;10.40;61.00;;;;;;4964218;28;93189;-73
2023/03/05 12:44:06;;;;;;;27.27;11.07;;;10.50;60.80;;;;;;4967165;28;93038;-70
2023/03/05 12:47:04;;;;;;;28.20;11.40;;;10.60;58.80;;;;;;4966080;28;92616;-71